Time;durP1;ratioP1;P1;durP2;ratioP2;P2;SDS_P1;SDS_P2;PMS_P1;PMS_P2;Temp;Humidity;BMP_temperature;BMP_pressure;BME280_temperature;BME280_humidity;BME280_pressure;Samples;Min_cycle;Max_cycle;Signal;HPM_P1;HPM_P2
2022/04/05 00:00:05;;;;;;;13.48;1.33;;;;;;;5.82;92.60;100091.66;2070633;28;28686;-65
2022/04/05 00:01:06;;;;;;;11.13;1.10;;;;;;;5.82;92.74;100097.00;2070966;28;45226;-64
2022/04/05 00:02:08;;;;;;;8.27;1.10;;;;;;;5.82;92.76;100091.66;2070482;28;45308;-64
2022/04/05 00:03:10;;;;;;;10.98;1.30;;;;;;;5.80;93.56;100088.16;2071096;28;44631;-64
2022/04/05 00:04:11;;;;;;;10.65;1.42;;;;;;;5.81;93.44;100092.56;2070935;28;44044;-64
2022/04/05 00:05:14;;;;;;;12.05;1.00;;;;;;;5.79;93.23;100097.91;2070445;28;46740;-64
2022/04/05 00:06:16;;;;;;;14.18;1.15;;;;;;;5.79;92.97;100095.25;2070580;28;44715;-63
2022/04/05 00:07:18;;;;;;;10.27;1.13;;;;;;;5.78;93.31;100095.25;2070654;28;45245;-64
2022/04/05 00:08:19;;;;;;;11.77;1.33;;;;;;;5.78;93.41;100088.19;2070617;28;45213;-64
2022/04/05 00:09:21;;;;;;;8.93;1.10;;;;;;;5.74;93.47;100095.34;2070718;28;42890;-64
2022/04/05 00:10:23;;;;;;;9.68;1.00;;;;;;;5.73;93.36;100098.88;2069635;28;44146;-64
2022/04/05 00:11:24;;;;;;;12.55;1.52;;;;;;;5.72;93.40;100093.59;2070435;28;44959;-64
2022/04/05 00:12:26;;;;;;;10.05;0.70;;;;;;;5.70;93.05;100098.91;2070635;28;39758;-64
2022/04/05 00:13:28;;;;;;;9.85;0.90;;;;;;;5.68;93.12;100102.53;2070888;28;41800;-65
2022/04/05 00:14:30;;;;;;;5.90;0.50;;;;;;;5.67;92.30;100090.13;2071786;28;20124;-64
2022/04/05 00:15:35;;;;;;;10.05;0.68;;;;;;;5.67;92.74;100099.00;2070789;28;27121;-64
2022/04/05 00:16:36;;;;;;;7.43;0.60;;;;;;;5.64;92.12;100093.72;2070726;28;42942;-64
2022/04/05 00:17:39;;;;;;;9.63;0.68;;;;;;;5.64;92.31;100072.47;2071086;28;43353;-65
2022/04/05 00:18:43;;;;;;;9.23;0.45;;;;;;;5.61;92.70;100098.22;2070940;28;43488;-65
2022/04/05 00:19:47;;;;;;;10.05;0.60;;;;;;;5.60;91.85;100102.66;2072061;28;20158;-64
2022/04/05 00:20:48;;;;;;;8.15;0.47;;;;;;;5.56;92.65;100098.28;2070448;28;29445;-64
2022/04/05 00:21:50;;;;;;;7.30;0.40;;;;;;;5.57;91.12;100093.88;2069489;28;39077;-64
2022/04/05 00:22:52;;;;;;;9.48;0.68;;;;;;;5.57;91.37;100099.16;2062647;28;45302;-64
2022/04/05 00:23:53;;;;;;;11.50;0.65;;;;;;;5.53;91.15;100099.22;2062788;28;45811;-64
2022/04/05 00:24:55;;;;;;;4.32;0.32;;;;;;;5.55;91.48;100096.53;2063042;28;44406;-65
2022/04/05 00:25:57;;;;;;;7.85;0.40;;;;;;;5.52;91.13;100096.56;2063212;28;44320;-64
2022/04/05 00:26:59;;;;;;;8.93;0.40;;;;;;;5.49;91.03;100092.22;2063137;28;29618;-64
2022/04/05 00:28:02;;;;;;;8.40;0.50;;;;;;;5.48;91.14;100087.78;2070996;28;46986;-64
2022/04/05 00:29:06;;;;;;;7.75;0.60;;;;;;;5.47;90.70;100099.31;2077990;28;46569;-64
2022/04/05 00:30:08;;;;;;;6.72;0.70;;;;;;;5.44;91.31;100098.50;2077825;28;44680;-64
2022/04/05 00:31:10;;;;;;;8.40;0.50;;;;;;;5.43;90.43;100088.75;2070346;28;42880;-64
2022/04/05 00:32:12;;;;;;;4.75;0.40;;;;;;;5.40;90.96;100088.78;2070429;28;43082;-66
2022/04/05 00:33:14;;;;;;;9.10;0.45;;;;;;;5.42;90.99;100094.97;2078561;28;29208;-64
2022/04/05 00:34:16;;;;;;;10.13;0.30;;;;;;;5.40;91.20;100096.75;2078550;28;45134;-63
2022/04/05 00:35:18;;;;;;;8.55;0.50;;;;;;;5.40;90.48;100097.66;2071281;28;30368;-64
2022/04/05 00:36:20;;;;;;;6.68;0.40;;;;;;;5.38;90.82;100093.25;2070663;28;45444;-64
2022/04/05 00:37:21;;;;;;;8.32;0.43;;;;;;;5.37;90.86;100108.31;2070614;28;44662;-64
2022/04/05 00:38:23;;;;;;;8.02;0.38;;;;;;;5.37;91.86;100107.44;2070232;28;33094;-64
2022/04/05 00:39:26;;;;;;;7.70;0.30;;;;;;;5.35;91.17;100112.78;2077773;28;44467;-67
2022/04/05 00:40:30;;;;;;;11.10;0.43;;;;;;;5.34;90.38;100106.56;2061819;28;43395;-66
2022/04/05 00:41:32;;;;;;;12.27;0.57;;;;;;;5.31;90.87;100105.75;2053984;28;45531;-66
2022/04/05 00:42:34;;;;;;;8.32;0.68;;;;;;;5.32;91.51;100103.06;2062930;28;44279;-64
2022/04/05 00:43:36;;;;;;;13.02;0.60;;;;;;;5.31;92.03;100106.63;2079328;28;20054;-65
2022/04/05 00:44:38;;;;;;;7.43;0.47;;;;;;;5.30;91.73;100109.31;2079917;28;45147;-66
2022/04/05 00:45:39;;;;;;;11.35;0.55;;;;;;;5.28;91.15;100111.13;2070547;28;44259;-65
2022/04/05 00:46:41;;;;;;;8.63;0.77;;;;;;;5.27;92.49;100115.53;2071924;28;45914;-66
2022/04/05 00:47:49;;;;;;;9.55;1.05;;;;;;;5.26;92.68;100112.91;2072057;28;45098;-66
2022/04/05 00:49:01;;;;;;;11.30;0.88;;;;;;;5.25;92.57;100112.03;2073016;28;20132;-66
2022/04/05 00:50:05;;;;;;;9.93;0.82;;;;;;;5.23;92.15;100111.16;2070659;28;45575;-66
2022/04/05 00:51:07;;;;;;;13.77;0.80;;;;;;;5.24;92.56;100104.97;2073171;28;20084;-66
2022/04/05 00:52:10;;;;;;;9.88;0.60;;;;;;;5.24;92.16;100114.69;2071627;28;45324;-66
2022/04/05 00:53:11;;;;;;;11.45;0.90;;;;;;;5.22;92.01;100111.19;2072408;28;39426;-66
2022/04/05 00:54:15;;;;;;;13.10;0.88;;;;;;;5.20;92.44;100108.56;2079186;28;44434;-66
2022/04/05 00:55:22;;;;;;;11.27;0.95;;;;;;;5.21;93.36;100112.97;2071867;28;20070;-65
2022/04/05 00:56:26;;;;;;;9.80;0.70;;;;;;;5.19;92.47;100112.13;2072628;28;45837;-66
2022/04/05 00:57:29;;;;;;;8.35;0.88;;;;;;;5.19;92.87;100106.81;2070862;28;45590;-66
2022/04/05 00:58:32;;;;;;;14.95;0.95;;;;;;;5.18;93.79;100106.84;2071546;28;44937;-65
2022/04/05 00:59:38;;;;;;;12.57;0.77;;;;;;;5.16;92.62;100115.69;2080838;28;20041;-66
2022/04/05 01:00:40;;;;;;;10.48;0.70;;;;;;;5.16;93.47;100110.38;2071705;28;38315;-66
2022/04/05 01:01:42;;;;;;;10.52;0.73;;;;;;;5.15;93.60;100105.06;2072214;28;46297;-66
2022/04/05 01:02:48;;;;;;;9.50;0.60;;;;;;;5.16;92.51;100110.38;2071254;28;45179;-66
2022/04/05 01:03:51;;;;;;;7.40;0.93;;;;;;;5.16;92.15;100112.16;2072344;28;46430;-66
2022/04/05 01:04:54;;;;;;;10.70;0.77;;;;;;;5.15;92.26;100107.72;2078800;28;43163;-65
2022/04/05 01:05:58;;;;;;;13.05;1.15;;;;;;;5.15;93.18;100113.03;2078747;28;41768;-66
2022/04/05 01:07:04;;;;;;;13.45;1.08;;;;;;;5.13;93.08;100112.19;2071973;28;20050;-66
2022/04/05 01:08:10;;;;;;;10.35;0.93;;;;;;;5.11;93.22;100108.69;2073551;28;20023;-66
2022/04/05 01:09:12;;;;;;;9.68;0.60;;;;;;;5.11;93.03;100114.84;2071334;28;41427;-65
2022/04/05 01:10:14;;;;;;;11.90;0.80;;;;;;;5.10;92.67;100117.56;2071772;28;44307;-66
2022/04/05 01:11:16;;;;;;;12.77;0.95;;;;;;;5.07;93.06;100121.13;2071495;28;45699;-66
2022/04/05 01:12:18;;;;;;;14.95;1.23;;;;;;;5.06;94.05;100114.06;2071142;28;44713;-66
2022/04/05 01:13:22;;;;;;;16.92;1.13;;;;;;;5.07;93.62;100109.63;2073040;28;20049;-66
2022/04/05 01:14:24;;;;;;;13.18;0.88;;;;;;;5.05;93.98;100114.09;2071360;28;45986;-65
2022/04/05 01:15:28;;;;;;;10.57;1.48;;;;;;;5.03;93.34;100111.44;2072340;28;44424;-66
2022/04/05 01:16:30;;;;;;;12.35;1.13;;;;;;;5.03;93.51;100113.25;2071798;28;43395;-66
2022/04/05 01:17:34;;;;;;;16.85;1.23;;;;;;;4.99;93.87;100107.09;2079675;28;46787;-65
2022/04/05 01:18:35;;;;;;;13.43;1.27;;;;;;;4.98;94.29;100119.47;2078945;28;44687;-66
2022/04/05 01:19:37;;;;;;;15.82;1.77;;;;;;;5.00;93.43;100121.22;2071817;28;44074;-66
2022/04/05 01:20:39;;;;;;;12.25;0.98;;;;;;;4.97;93.84;100120.38;2078631;28;45953;-66
2022/04/05 01:21:41;;;;;;;14.00;1.30;;;;;;;4.97;93.82;100117.72;2079443;28;43742;-66
2022/04/05 01:22:49;;;;;;;20.20;1.60;;;;;;;4.97;93.92;100119.47;2072169;28;31323;-66
2022/04/05 01:24:11;;;;;;;13.88;1.20;;;;;;;4.94;93.63;100120.41;2080938;28;20046;-66
2022/04/05 01:25:19;;;;;;;12.32;1.10;;;;;;;4.94;93.63;100115.09;2071093;28;30374;-65
2022/04/05 01:26:21;;;;;;;16.27;1.73;;;;;;;4.94;94.45;100117.75;2072885;28;45822;-66
2022/04/05 01:27:27;;;;;;;12.75;1.48;;;;;;;4.93;94.71;100118.63;2078551;28;45380;-66
2022/04/05 01:28:29;;;;;;;13.98;0.80;;;;;;;4.90;93.56;100120.44;2071538;28;46394;-66
2022/04/05 01:29:31;;;;;;;14.70;1.40;;;;;;;4.90;94.26;100117.81;2071405;28;42994;-65
2022/04/05 01:30:32;;;;;;;17.52;1.30;;;;;;;4.91;93.98;100122.22;2071269;28;45543;-66
2022/04/05 01:32:03;;;;;;;14.77;1.38;;;;;;;4.91;95.19;100127.53;2071351;28;44670;-66
2022/04/05 01:33:05;;;;;;;20.63;1.92;;;;;;;4.91;95.21;100122.22;2068223;28;45308;-66
2022/04/05 01:34:07;;;;;;;13.80;1.67;;;;;;;4.92;95.49;100121.34;2072451;28;20157;-65
2022/04/05 01:35:10;;;;;;;15.68;1.63;;;;;;;4.93;94.92;100121.28;2064198;28;22608;-66
2022/04/05 01:36:25;;;;;;;14.18;1.30;;;;;;;4.93;95.17;100125.72;2071332;28;45622;-66
2022/04/05 01:37:27;;;;;;;15.65;1.42;;;;;;;4.90;94.59;100123.09;2072626;28;20724;-66
2022/04/05 01:38:28;;;;;;;16.73;1.35;;;;;;;4.90;94.58;100121.34;2071589;28;44645;-66
2022/04/05 01:39:34;;;;;;;19.50;1.48;;;;;;;4.90;94.54;100126.66;2071647;28;31141;-66
2022/04/05 01:40:36;;;;;;;11.65;1.70;;;;;;;4.88;94.92;100131.13;2071105;28;45664;-66
2022/04/05 01:41:38;;;;;;;14.20;1.30;;;;;;;4.88;94.37;100133.75;2071482;28;44099;-66
2022/04/05 01:42:39;;;;;;;19.00;1.88;;;;;;;4.90;94.63;100134.63;2071249;28;43850;-66
2022/04/05 01:43:43;;;;;;;17.33;1.77;;;;;;;4.89;95.47;100130.19;2070799;28;44346;-65
2022/04/05 01:44:45;;;;;;;21.20;1.63;;;;;;;4.92;95.84;100138.13;2072273;28;43311;-65
2022/04/05 01:45:47;;;;;;;15.77;1.70;;;;;;;4.93;95.77;100142.50;2070266;28;44657;-66
2022/04/05 01:46:49;;;;;;;20.27;1.80;;;;;;;4.93;95.88;100139.84;2070922;28;45602;-66
2022/04/05 01:47:50;;;;;;;20.15;1.27;;;;;;;4.95;95.27;100140.75;2079078;28;40408;-66
2022/04/05 01:48:52;;;;;;;22.13;1.45;;;;;;;4.96;95.37;100137.19;2071973;28;44268;-66
2022/04/05 01:49:54;;;;;;;21.55;2.10;;;;;;;4.98;94.65;100139.81;2071670;28;43894;-66
2022/04/05 01:50:56;;;;;;;17.20;1.98;;;;;;;4.98;94.31;100140.69;2071273;28;45330;-66
2022/04/05 01:51:57;;;;;;;22.08;2.08;;;;;;;4.98;95.40;100146.00;2071007;28;43186;-65
2022/04/05 01:52:59;;;;;;;15.93;1.35;;;;;;;4.98;94.48;100135.38;2072198;28;40418;-65
2022/04/05 01:54:05;;;;;;;15.55;1.10;;;;;;;4.99;94.29;100136.28;2072845;28;20037;-66
2022/04/05 01:55:08;;;;;;;16.85;1.88;;;;;;;4.96;94.21;100137.19;2071719;28;44109;-65
2022/04/05 01:56:12;;;;;;;18.17;1.70;;;;;;;4.96;94.59;100137.19;2071161;28;40871;-66
2022/04/05 01:57:15;;;;;;;14.82;1.52;;;;;;;4.98;95.01;100140.69;2071802;28;43966;-66
2022/04/05 01:58:17;;;;;;;21.25;1.40;;;;;;;5.00;94.45;100142.44;2079095;28;44273;-66
2022/04/05 01:59:23;;;;;;;15.07;1.33;;;;;;;5.01;93.68;100146.84;2072046;28;44664;-65
2022/04/05 02:00:24;;;;;;;17.48;1.67;;;;;;;5.02;93.87;100143.31;2071806;28;45735;-66
2022/04/05 02:01:26;;;;;;;11.93;1.52;;;;;;;5.03;93.41;100140.63;2072293;28;34489;-66
2022/04/05 02:02:28;;;;;;;22.92;1.98;;;;;;;5.04;92.40;100145.03;2072773;28;20851;-65
2022/04/05 02:03:30;;;;;;;18.30;1.33;;;;;;;5.05;92.25;100145.94;2072713;28;20140;-65
2022/04/05 02:04:36;;;;;;;17.02;1.38;;;;;;;5.05;93.31;100145.94;2072185;28;20159;-66
2022/04/05 02:05:38;;;;;;;17.67;1.77;;;;;;;5.08;92.73;100148.50;2070627;28;44146;-66
2022/04/05 02:06:43;;;;;;;20.63;1.60;;;;;;;5.07;92.47;100145.00;2070832;28;46544;-66
2022/04/05 02:07:44;;;;;;;21.92;1.45;;;;;;;5.09;92.97;100152.94;2072535;28;20050;-66
2022/04/05 02:08:46;;;;;;;19.75;1.25;;;;;;;5.08;92.12;100156.47;2072794;28;20499;-66
2022/04/05 02:09:49;;;;;;;19.63;1.20;;;;;;;5.08;92.34;100148.50;2080261;28;20123;-66
2022/04/05 02:10:51;;;;;;;20.25;1.80;;;;;;;5.05;92.85;100149.44;2071986;28;20030;-66
2022/04/05 02:11:54;;;;;;;13.77;1.00;;;;;;;5.06;92.22;100151.22;2063932;28;20038;-65
2022/04/05 02:13:13;;;;;;;13.05;0.93;;;;;;;5.03;91.68;100145.06;2074212;28;20062;-66
2022/04/05 02:14:22;;;;;;;24.42;1.58;;;;;;;4.99;92.02;100146.88;2080018;28;20038;-65
2022/04/05 02:15:24;;;;;;;20.17;2.17;;;;;;;4.98;92.70;100151.28;2078588;28;20081;-66
2022/04/05 02:16:35;;;;;;;17.20;1.27;;;;;;;4.97;91.70;100151.31;2072015;28;20031;-66
2022/04/05 02:17:39;;;;;;;12.57;0.85;;;;;;;4.95;92.11;100151.34;2063970;28;20082;-66
2022/04/05 02:18:42;;;;;;;17.45;1.20;;;;;;;4.93;92.21;100152.25;2063923;28;20039;-65
2022/04/05 02:19:44;;;;;;;13.07;1.08;;;;;;;4.91;91.92;100151.41;2071881;28;20038;-65
2022/04/05 02:20:51;;;;;;;13.80;1.20;;;;;;;4.86;92.10;100146.13;2071575;28;20297;-65
2022/04/05 02:21:56;;;;;;;15.50;1.52;;;;;;;4.87;91.84;100149.69;2070945;28;20221;-66
2022/04/05 02:23:02;;;;;;;16.30;1.73;;;;;;;4.83;90.71;100151.50;2079588;28;21019;-65
2022/04/05 02:24:30;;;;;;;14.90;1.38;;;;;;;4.78;90.79;100154.19;2071563;28;21037;-66
2022/04/05 02:25:32;;;;;;;12.70;1.17;;;;;;;4.76;91.50;100157.78;2071559;28;20918;-65
2022/04/05 02:26:37;;;;;;;15.88;1.13;;;;;;;4.73;91.47;100147.19;2071513;28;20836;-66
2022/04/05 02:27:41;;;;;;;20.42;1.48;;;;;;;4.71;91.04;100151.66;2063084;28;20046;-65
2022/04/05 02:28:47;;;;;;;17.75;1.33;;;;;;;4.68;91.23;100156.97;2056400;28;20039;-66
2022/04/05 02:29:51;;;;;;;13.10;1.20;;;;;;;4.66;92.05;100164.06;2065310;28;20043;-65
2022/04/05 02:30:58;;;;;;;16.35;1.08;;;;;;;4.65;92.38;100163.19;2079880;28;20042;-65
2022/04/05 02:32:07;;;;;;;14.30;1.33;;;;;;;4.62;92.07;100159.72;2079638;28;20890;-65
2022/04/05 02:33:11;;;;;;;13.70;0.90;;;;;;;4.62;91.36;100159.72;2071282;28;20127;-65
2022/04/05 02:34:12;;;;;;;14.35;1.13;;;;;;;4.56;91.20;100164.19;2071287;28;30667;-65
2022/04/05 02:35:22;;;;;;;18.65;0.98;;;;;;;4.53;91.25;100164.19;2071987;28;20872;-66
2022/04/05 02:36:25;;;;;;;18.33;1.00;;;;;;;4.51;92.13;100162.47;2071146;28;20319;-66
2022/04/05 02:37:28;;;;;;;14.73;0.68;;;;;;;4.52;90.99;100165.13;2063519;28;20039;-65
2022/04/05 02:38:31;;;;;;;18.27;1.85;;;;;;;4.51;90.99;100163.34;2070030;28;44451;-65
2022/04/05 02:39:34;;;;;;;13.57;1.00;;;;;;;4.50;91.57;100161.56;2071594;28;20039;-65
2022/04/05 02:40:39;;;;;;;13.10;0.80;;;;;;;4.51;90.97;100171.31;2055837;28;21072;-65
2022/04/05 02:41:43;;;;;;;14.13;0.93;;;;;;;4.49;91.53;100173.09;2056781;28;20031;-65
2022/04/05 02:42:49;;;;;;;15.07;1.00;;;;;;;4.48;90.61;100168.66;2063546;28;20042;-64
2022/04/05 02:43:51;;;;;;;12.38;1.02;;;;;;;4.51;90.22;100165.13;2072573;28;20046;-65
2022/04/05 02:44:54;;;;;;;16.45;0.82;;;;;;;4.52;91.23;100175.72;2071311;28;20872;-65
2022/04/05 02:45:56;;;;;;;14.88;0.85;;;;;;;4.52;90.48;100177.47;2063428;28;20047;-65
2022/04/05 02:47:02;;;;;;;13.90;1.13;;;;;;;4.49;90.34;100172.22;2055581;28;20093;-65
2022/04/05 02:48:06;;;;;;;16.88;1.20;;;;;;;4.47;90.21;100166.94;2055689;28;20047;-65
2022/04/05 02:49:09;;;;;;;15.30;1.10;;;;;;;4.48;90.39;100178.41;2056240;28;20177;-65
2022/04/05 02:50:17;;;;;;;10.73;0.60;;;;;;;4.47;91.36;100185.50;2062720;28;20157;-65
2022/04/05 02:51:22;;;;;;;11.07;0.82;;;;;;;4.48;91.29;100176.63;2064512;28;20053;-64
2022/04/05 02:52:26;;;;;;;16.60;1.33;;;;;;;4.47;90.68;100184.59;2071049;28;20058;-66
2022/04/05 02:53:33;;;;;;;17.52;1.27;;;;;;;4.46;91.07;100188.16;2056474;28;20036;-64
2022/04/05 02:54:35;;;;;;;14.18;1.13;;;;;;;4.46;91.35;100182.84;2063319;28;20040;-65
2022/04/05 02:55:39;;;;;;;10.50;0.90;;;;;;;4.47;91.53;100180.19;2075057;28;20057;-65
2022/04/05 02:56:41;;;;;;;18.73;1.33;;;;;;;4.45;91.61;100178.44;2079521;28;20660;-65
2022/04/05 02:57:46;;;;;;;12.15;0.70;;;;;;;4.43;91.79;100188.16;2071413;28;20165;-66
2022/04/05 02:58:55;;;;;;;16.17;1.00;;;;;;;4.42;90.83;100175.84;2064223;28;20054;-65
2022/04/05 02:59:57;;;;;;;12.20;1.00;;;;;;;4.39;91.80;100182.91;2071740;28;20034;-65
2022/04/05 03:01:00;;;;;;;16.08;0.90;;;;;;;4.38;91.11;100180.28;2070557;28;20054;-65
2022/04/05 03:02:03;;;;;;;18.15;1.15;;;;;;;4.37;91.12;100189.97;2071641;28;20124;-65
2022/04/05 03:03:07;;;;;;;16.20;0.95;;;;;;;4.37;92.08;100197.06;2063156;28;20035;-65
2022/04/05 03:04:12;;;;;;;10.27;1.15;;;;;;;4.35;91.50;100191.78;2057160;28;20222;-65
2022/04/05 03:05:18;;;;;;;17.88;1.42;;;;;;;4.34;91.54;100198.00;2055778;28;20047;-65
2022/04/05 03:06:20;;;;;;;15.40;1.40;;;;;;;4.34;92.36;100199.72;2056165;28;20050;-64
2022/04/05 03:07:22;;;;;;;15.75;1.15;;;;;;;4.34;92.03;100194.44;2063174;28;20162;-64
2022/04/05 03:08:25;;;;;;;18.90;1.20;;;;;;;4.33;92.01;100192.69;2063356;28;20257;-65
2022/04/05 03:09:27;;;;;;;15.63;1.10;;;;;;;4.31;92.83;100194.50;2071554;28;20030;-64
2022/04/05 03:10:32;;;;;;;16.25;1.55;;;;;;;4.34;92.21;100191.78;2078991;28;20787;-65
2022/04/05 03:11:35;;;;;;;21.67;1.15;;;;;;;4.34;92.87;100195.34;2071096;28;20899;-65
2022/04/05 03:12:39;;;;;;;16.58;1.20;;;;;;;4.33;92.74;100190.03;2063773;28;20051;-64
2022/04/05 03:13:42;;;;;;;15.75;1.00;;;;;;;4.33;92.73;100192.69;2071609;28;20049;-65
2022/04/05 03:14:46;;;;;;;18.58;1.00;;;;;;;4.32;93.10;100180.31;2071079;28;20950;-65
2022/04/05 03:15:49;;;;;;;18.77;1.10;;;;;;;4.31;92.90;100189.19;2054394;28;20047;-65
2022/04/05 03:16:53;;;;;;;12.63;1.33;;;;;;;4.29;92.47;100191.84;2056399;28;21102;-67
2022/04/05 03:17:55;;;;;;;17.60;1.67;;;;;;;4.29;93.23;100196.25;2054796;28;20040;-65
2022/04/05 03:18:58;;;;;;;22.63;0.88;;;;;;;4.28;92.50;100195.38;2056181;28;20048;-64
2022/04/05 03:20:04;;;;;;;14.80;1.45;;;;;;;4.27;92.92;100190.09;2071301;28;20402;-65
2022/04/05 03:21:07;;;;;;;19.02;1.25;;;;;;;4.27;92.82;100192.72;2063122;28;20891;-66
2022/04/05 03:22:09;;;;;;;20.48;1.55;;;;;;;4.26;93.57;100191.00;2062036;28;43326;-66
2022/04/05 03:24:20;;;;;;;13.35;0.88;;;;;;;4.23;92.59;100198.97;2070628;28;45395;-62
2022/04/05 03:25:23;;;;;;;14.05;1.20;;;;;;;4.23;93.40;100201.63;2077960;28;20058;-63
2022/04/05 03:26:27;;;;;;;16.58;0.98;;;;;;;4.19;93.08;100206.94;2071173;28;20150;-62
2022/04/05 03:27:29;;;;;;;17.15;1.00;;;;;;;4.17;92.69;100203.41;2070379;28;42931;-62
2022/04/05 03:28:31;;;;;;;14.55;0.95;;;;;;;4.17;92.82;100205.19;2071095;28;20082;-62
2022/04/05 03:29:34;;;;;;;20.70;1.02;;;;;;;4.18;92.66;100202.53;2071327;28;20915;-62
2022/04/05 03:30:37;;;;;;;18.33;1.02;;;;;;;4.18;92.69;100205.19;2071099;28;20116;-62
2022/04/05 03:31:40;;;;;;;17.52;1.70;;;;;;;4.18;93.07;100199.91;2071052;28;20156;-62
2022/04/05 03:32:45;;;;;;;15.25;0.75;;;;;;;4.17;92.33;100206.06;2071178;28;20831;-62
2022/04/05 03:33:48;;;;;;;16.35;0.82;;;;;;;4.16;92.50;100206.97;2071160;28;20038;-61
2022/04/05 03:34:52;;;;;;;18.10;1.08;;;;;;;4.15;92.90;100205.22;2071218;28;20045;-63
2022/04/05 03:35:55;;;;;;;14.48;1.38;;;;;;;4.17;92.96;100211.38;2071181;28;21091;-63
2022/04/05 03:36:59;;;;;;;16.48;0.90;;;;;;;4.15;92.63;100205.22;2071357;28;20931;-62
2022/04/05 03:38:01;;;;;;;17.20;0.85;;;;;;;4.14;92.38;100207.88;2070641;28;20055;-62
2022/04/05 03:39:05;;;;;;;16.58;1.23;;;;;;;4.15;92.11;100210.50;2071110;28;20038;-63
2022/04/05 03:40:08;;;;;;;13.50;1.38;;;;;;;4.14;92.37;100211.38;2071096;28;34549;-63
2022/04/05 03:41:10;;;;;;;11.18;0.77;;;;;;;4.15;93.05;100215.81;2063588;28;20035;-63
2022/04/05 03:42:16;;;;;;;8.93;0.50;;;;;;;4.13;92.11;100224.66;2071041;28;20057;-62
2022/04/05 03:43:20;;;;;;;9.63;0.80;;;;;;;4.13;92.94;100217.59;2071523;28;20034;-63
2022/04/05 03:44:26;;;;;;;12.10;0.80;;;;;;;4.13;92.21;100217.59;2071042;28;20168;-62
2022/04/05 03:45:28;;;;;;;17.42;1.20;;;;;;;4.11;92.94;100223.78;2070368;28;20093;-63
2022/04/05 03:46:31;;;;;;;15.48;1.52;;;;;;;4.10;92.79;100225.56;2070414;28;20065;-63
2022/04/05 03:47:33;;;;;;;18.60;1.08;;;;;;;4.10;92.00;100220.25;2070992;28;20047;-63
2022/04/05 03:48:36;;;;;;;12.95;1.02;;;;;;;4.09;92.73;100217.63;2070606;28;20157;-63
2022/04/05 03:49:41;;;;;;;12.48;0.85;;;;;;;4.07;92.32;100217.63;2071229;28;20038;-63
2022/04/05 03:50:43;;;;;;;16.00;1.00;;;;;;;4.07;92.74;100211.47;2070206;28;26295;-63
2022/04/05 03:51:45;;;;;;;14.48;1.02;;;;;;;4.05;92.30;100219.41;2071453;28;20050;-63
2022/04/05 03:52:47;;;;;;;8.65;0.88;;;;;;;4.05;92.08;100214.13;2071126;28;20054;-63
2022/04/05 03:53:58;;;;;;;13.27;1.23;;;;;;;4.04;92.16;100211.47;2071549;28;20038;-63
2022/04/05 03:55:06;;;;;;;13.50;1.25;;;;;;;4.05;92.19;100215.91;2064652;28;20525;-63
2022/04/05 03:56:09;;;;;;;19.90;1.27;;;;;;;4.06;92.78;100212.38;2062860;28;20046;-63
2022/04/05 03:57:11;;;;;;;17.10;1.05;;;;;;;4.06;92.45;100210.59;2070343;28;20047;-63
2022/04/05 03:58:13;;;;;;;12.45;0.95;;;;;;;4.05;92.54;100214.13;2071347;28;20242;-63
2022/04/05 03:59:17;;;;;;;13.25;1.23;;;;;;;4.04;92.15;100209.72;2070977;28;20038;-63
2022/04/05 04:00:18;;;;;;;15.60;1.15;;;;;;;4.04;92.69;100214.13;2071245;28;20131;-62
2022/04/05 04:01:32;;;;;;;16.13;1.08;;;;;;;4.05;92.49;100213.25;2070096;28;20153;-63
2022/04/05 04:02:35;;;;;;;15.98;1.10;;;;;;;4.04;91.92;100216.78;2070331;28;44005;-63
2022/04/05 04:03:37;;;;;;;12.95;1.38;;;;;;;4.03;92.68;100212.38;2070977;28;20074;-63
2022/04/05 04:04:39;;;;;;;14.63;0.98;;;;;;;4.03;92.40;100218.56;2070847;28;20820;-63
2022/04/05 04:05:44;;;;;;;13.20;1.05;;;;;;;4.03;91.92;100218.56;2070752;28;20144;-63
2022/04/05 04:06:47;;;;;;;15.38;1.10;;;;;;;4.03;92.85;100222.97;2062677;28;20047;-62
2022/04/05 04:07:49;;;;;;;15.68;0.80;;;;;;;4.01;92.66;100217.69;2062688;28;20173;-63
2022/04/05 04:08:53;;;;;;;16.33;1.85;;;;;;;4.03;92.02;100220.34;2071237;28;20034;-63
2022/04/05 04:10:01;;;;;;;16.33;1.38;;;;;;;4.01;92.79;100218.56;2070515;28;20055;-63
2022/04/05 04:11:04;;;;;;;13.52;0.90;;;;;;;3.99;91.93;100207.09;2070157;28;20048;-63
2022/04/05 04:12:07;;;;;;;13.35;0.82;;;;;;;3.99;92.86;100216.81;2070313;28;20149;-63
2022/04/05 04:13:10;;;;;;;17.10;1.00;;;;;;;4.00;92.52;100221.22;2071084;28;20046;-63
2022/04/05 04:14:16;;;;;;;12.35;1.20;;;;;;;3.96;93.01;100223.00;2071076;28;20035;-63
2022/04/05 04:15:19;;;;;;;18.50;0.90;;;;;;;3.96;92.43;100223.00;2070112;28;20050;-63
2022/04/05 04:16:22;;;;;;;13.15;1.13;;;;;;;3.95;92.89;100223.91;2069961;28;20054;-63
2022/04/05 04:17:25;;;;;;;13.85;1.20;;;;;;;3.95;92.71;100225.69;2070981;28;20050;-63
2022/04/05 04:18:27;;;;;;;13.05;0.93;;;;;;;3.94;92.96;100230.09;2070688;28;20043;-63
2022/04/05 04:19:34;;;;;;;18.52;1.13;;;;;;;3.96;93.42;100232.72;2072386;28;20955;-63
2022/04/05 04:20:42;;;;;;;16.55;1.23;;;;;;;3.94;93.35;100231.88;2071848;28;20771;-63
2022/04/05 04:21:45;;;;;;;12.07;1.10;;;;;;;3.93;92.75;100230.09;2063887;28;20142;-63
2022/04/05 04:22:46;;;;;;;18.67;0.75;;;;;;;3.92;93.04;100242.47;2063753;28;40461;-62
2022/04/05 04:23:49;;;;;;;18.38;0.75;;;;;;;3.92;93.15;100233.66;2064367;28;20062;-63
2022/04/05 04:24:52;;;;;;;14.73;0.98;;;;;;;3.89;93.65;100229.25;2064192;28;20090;-61
2022/04/05 04:25:56;;;;;;;15.25;1.25;;;;;;;3.94;93.46;100238.03;2065077;28;29718;-63
2022/04/05 04:26:57;;;;;;;17.67;1.10;;;;;;;3.94;93.22;100234.53;2071391;28;48593;-62
2022/04/05 04:28:00;;;;;;;11.98;0.90;;;;;;;3.94;94.07;100229.22;2072282;28;20057;-63
2022/04/05 04:29:04;;;;;;;18.52;1.17;;;;;;;3.93;93.69;100225.69;2072101;28;20038;-62
2022/04/05 04:30:06;;;;;;;14.52;1.10;;;;;;;3.92;94.09;100226.59;2071532;28;31638;-64
2022/04/05 04:31:08;;;;;;;15.50;1.75;;;;;;;3.92;93.91;100228.34;2070668;28;45420;-63
2022/04/05 04:32:10;;;;;;;13.63;0.98;;;;;;;3.94;94.38;100234.53;2063927;28;44438;-63
2022/04/05 04:33:14;;;;;;;14.55;1.23;;;;;;;3.93;93.80;100230.09;2064998;28;20101;-63
2022/04/05 04:34:15;;;;;;;15.35;1.25;;;;;;;3.93;93.76;100235.41;2063659;28;46432;-63
2022/04/05 04:35:17;;;;;;;8.98;0.65;;;;;;;3.94;93.74;100235.38;2064269;28;44656;-62
2022/04/05 04:36:19;;;;;;;21.52;1.27;;;;;;;3.93;94.05;100231.00;2064316;28;45456;-63
2022/04/05 04:37:21;;;;;;;16.17;1.30;;;;;;;3.93;93.78;100235.41;2064111;28;43910;-63
2022/04/05 04:38:23;;;;;;;13.90;1.08;;;;;;;3.93;93.50;100232.75;2063989;28;43063;-63
2022/04/05 04:39:25;;;;;;;15.82;0.90;;;;;;;3.92;94.07;100228.34;2063626;28;44188;-63
2022/04/05 04:40:27;;;;;;;13.95;0.90;;;;;;;3.93;93.68;100230.09;2064089;28;45835;-63
2022/04/05 04:41:31;;;;;;;14.30;0.75;;;;;;;3.93;94.58;100232.75;2072023;28;20054;-62
2022/04/05 04:42:33;;;;;;;16.40;1.20;;;;;;;3.93;93.84;100236.28;2070838;28;44569;-63
2022/04/05 04:43:35;;;;;;;17.35;1.67;;;;;;;3.95;94.30;100241.59;2063717;28;44903;-62
2022/04/05 04:44:37;;;;;;;18.42;0.82;;;;;;;3.95;93.88;100231.00;2065229;28;20046;-63
2022/04/05 04:45:38;;;;;;;11.75;0.77;;;;;;;3.94;93.77;100235.38;2064111;28;45677;-63
2022/04/05 04:46:40;;;;;;;13.15;0.85;;;;;;;3.94;94.33;100237.16;2063532;28;43813;-63
2022/04/05 04:47:42;;;;;;;15.07;1.10;;;;;;;3.94;93.90;100230.09;2063923;28;45121;-63
2022/04/05 04:48:47;;;;;;;13.68;1.40;;;;;;;3.94;93.78;100237.16;2071760;28;35989;-63
2022/04/05 04:49:49;;;;;;;19.10;1.02;;;;;;;3.95;94.53;100244.22;2071392;28;33570;-64
2022/04/05 04:50:55;;;;;;;14.13;1.10;;;;;;;3.95;93.99;100244.22;2063340;28;45781;-63
2022/04/05 04:51:57;;;;;;;12.00;1.20;;;;;;;3.95;93.54;100246.88;2063582;28;45100;-63
2022/04/05 04:52:59;;;;;;;21.25;1.30;;;;;;;3.95;94.11;100247.75;2064248;28;34867;-62
2022/04/05 04:54:00;;;;;;;16.17;1.38;;;;;;;3.96;94.05;100251.28;2063884;28;44431;-62
2022/04/05 04:55:02;;;;;;;14.70;1.10;;;;;;;3.95;94.16;100249.53;2064049;28;44281;-63
2022/04/05 04:56:04;;;;;;;14.85;1.67;;;;;;;3.96;93.91;100253.91;2070782;28;45450;-62
2022/04/05 04:57:10;;;;;;;16.67;1.00;;;;;;;3.97;93.92;100242.44;2070300;28;45252;-63